createdAt,value
2018-04-22T00:02:23.291Z,81.40
2018-04-22T00:04:53.032Z,81.90
2018-04-22T00:07:22.650Z,81.60
2018-04-22T00:09:52.980Z,79.50
2018-04-22T00:12:23.114Z,79.40
2018-04-22T00:14:52.814Z,78.80
2018-04-22T00:17:23.301Z,78.20
2018-04-22T00:19:52.987Z,78.20
2018-04-22T00:22:22.445Z,78.30
2018-04-22T00:24:52.151Z,79.50
2018-04-22T00:27:21.896Z,79.30
2018-04-22T00:29:52.238Z,78.90
2018-04-22T00:32:21.793Z,78.90
2018-04-22T00:34:53.016Z,78.90
2018-04-22T00:37:22.659Z,79.00
2018-04-22T00:39:52.438Z,79.70
2018-04-22T00:42:22.238Z,79.90
2018-04-22T00:44:51.954Z,79.60
2018-04-22T00:47:21.452Z,80.00
2018-04-22T00:49:51.105Z,80.30
2018-04-22T00:52:20.804Z,80.50
2018-04-22T00:54:50.587Z,80.70
2018-04-22T00:57:20.115Z,80.60
2018-04-22T00:59:49.930Z,80.50
2018-04-22T01:02:19.524Z,80.60
2018-04-22T01:04:49.177Z,79.70
2018-04-22T01:07:18.949Z,79.50
2018-04-22T01:09:48.869Z,79.40
2018-04-22T01:12:18.456Z,79.20
2018-04-22T01:14:48.184Z,79.30
2018-04-22T01:17:28.318Z,79.30
2018-04-22T01:20:03.385Z,79.90
2018-04-22T01:22:36.535Z,79.80
2018-04-22T01:25:06.592Z,80.20
2018-04-22T01:27:36.397Z,81.00
2018-04-22T01:30:05.920Z,81.20
2018-04-22T01:32:35.879Z,82.20
2018-04-22T01:35:06.210Z,81.50
2018-04-22T01:37:35.772Z,81.50
2018-04-22T01:40:05.743Z,82.60
2018-04-22T01:42:36.137Z,81.40
2018-04-22T01:45:06.435Z,81.50
2018-04-22T01:47:36.130Z,81.50
2018-04-22T01:50:05.704Z,81.50
2018-04-22T01:52:35.455Z,81.60
2018-04-22T01:55:05.154Z,81.80
2018-04-22T01:57:34.770Z,81.70
2018-04-22T02:00:04.539Z,82.30
2018-04-22T02:02:34.434Z,81.90
2018-04-22T02:05:04.797Z,81.00
2018-04-22T02:07:35.459Z,81.10
2018-04-22T02:10:05.828Z,81.60
2018-04-22T02:12:35.468Z,81.50
2018-04-22T02:15:05.126Z,82.30
2018-04-22T02:17:35.754Z,82.90
2018-04-22T02:20:05.303Z,82.90
2018-04-22T02:22:35.578Z,84.30
2018-04-22T02:25:05.271Z,84.20
2018-04-22T02:27:35.050Z,84.80
2018-04-22T02:30:05.005Z,85.90
2018-04-22T02:32:35.377Z,87.10
2018-04-22T02:35:05.175Z,87.50
2018-04-22T02:37:34.780Z,87.60
2018-04-22T02:40:05.156Z,84.80
2018-04-22T02:42:34.721Z,84.80
2018-04-22T02:45:04.289Z,83.80
2018-04-22T02:47:34.255Z,82.40
2018-04-22T02:50:04.018Z,82.10
2018-04-22T02:52:33.690Z,81.70
2018-04-22T02:55:03.302Z,81.70
2018-04-22T02:57:33.051Z,81.70
2018-04-22T03:00:02.970Z,81.90
2018-04-22T03:02:32.470Z,82.40
2018-04-22T03:05:03.819Z,82.80
2018-04-22T03:07:33.377Z,82.80
2018-04-22T03:10:02.905Z,82.70
2018-04-22T03:12:32.658Z,83.10
2018-04-22T03:15:02.225Z,83.90
2018-04-22T03:17:31.833Z,85.30
2018-04-22T03:20:01.469Z,86.10
2018-04-22T03:22:30.934Z,86.90
2018-04-22T03:25:00.455Z,87.70
2018-04-22T03:27:30.131Z,88.10
2018-04-22T03:30:00.515Z,89.50
2018-04-22T03:32:31.624Z,88.00
2018-04-22T03:35:01.243Z,87.90
2018-04-22T03:37:30.729Z,86.80
2018-04-22T03:40:00.289Z,87.00
2018-04-22T03:42:29.776Z,86.70
2018-04-22T03:44:59.473Z,86.70
2018-04-22T03:47:29.892Z,87.30
2018-04-22T03:50:00.197Z,86.50
2018-04-22T03:52:29.884Z,86.30
2018-04-22T03:54:59.431Z,85.30
2018-04-22T03:57:28.943Z,83.90
2018-04-22T03:59:58.571Z,82.70
2018-04-22T04:02:28.080Z,81.80
2018-04-22T04:04:57.669Z,80.70
2018-04-22T04:07:27.378Z,81.00
2018-04-22T04:09:56.972Z,81.30
2018-04-22T04:12:26.700Z,82.00
2018-04-22T04:14:56.261Z,82.80
2018-04-22T04:17:25.742Z,83.30
2018-04-22T04:20:13.152Z,84.30
2018-04-22T04:22:47.425Z,84.50
2018-04-22T04:28:25.771Z,84.50
2018-04-22T04:30:55.723Z,85.60
2018-04-22T04:33:25.222Z,86.20
2018-04-22T04:35:54.737Z,89.60
2018-04-22T04:38:24.977Z,90.00
2018-04-22T04:40:59.900Z,87.90
2018-04-22T04:43:29.712Z,85.60
2018-04-22T04:45:59.424Z,84.30
2018-04-22T04:48:28.985Z,83.70
2018-04-22T04:50:58.505Z,83.10
2018-04-22T04:53:28.149Z,82.70
2018-04-22T04:55:57.648Z,82.00
2018-04-22T04:58:28.891Z,80.90
2018-04-22T05:00:58.465Z,80.90
2018-04-22T05:03:27.988Z,80.40
2018-04-22T05:05:57.813Z,80.20
2018-04-22T05:08:27.313Z,79.80
2018-04-22T05:10:57.681Z,78.50
2018-04-22T05:13:28.009Z,76.90
2018-04-22T05:15:58.292Z,76.80
2018-04-22T05:18:28.309Z,75.20
2018-04-22T05:20:57.830Z,73.40
2018-04-22T05:23:27.711Z,71.50
2018-04-22T05:25:58.222Z,70.10
2018-04-22T05:28:28.704Z,67.70
2018-04-22T05:30:58.594Z,67.50
2018-04-22T05:33:29.175Z,66.30
2018-04-22T05:35:59.261Z,66.30
2018-04-22T05:38:29.355Z,65.60
2018-04-22T05:41:01.558Z,63.40
2018-04-22T05:43:31.366Z,63.30
2018-04-22T05:46:01.177Z,62.30
2018-04-22T05:48:30.994Z,61.40
2018-04-22T05:51:02.349Z,62.10
2018-04-22T05:53:32.008Z,64.70
2018-04-22T05:56:02.069Z,66.10
2018-04-22T05:58:31.601Z,66.60
2018-04-22T06:01:01.963Z,66.50
2018-04-22T06:03:31.598Z,66.40
2018-04-22T06:06:01.955Z,66.70
2018-04-22T06:08:31.689Z,64.80
2018-04-22T06:11:01.568Z,63.30
2018-04-22T06:13:31.380Z,63.80
2018-04-22T06:16:01.706Z,64.70
2018-04-22T06:18:32.466Z,63.00
2018-04-22T06:21:02.398Z,61.90
2018-04-22T06:23:32.753Z,63.10
2018-04-22T06:26:02.410Z,62.90
2018-04-22T06:28:32.614Z,61.40
2018-04-22T06:31:04.717Z,54.20
2018-04-22T06:33:35.665Z,53.30
2018-04-22T06:36:05.741Z,53.40
2018-04-22T06:38:35.437Z,51.80
2018-04-22T06:41:05.180Z,53.40
2018-04-22T06:43:34.697Z,55.60
2018-04-22T06:46:05.163Z,52.50
2018-04-22T06:48:34.771Z,52.40
2018-04-22T06:51:04.410Z,56.50
2018-04-22T06:53:34.053Z,53.60
2018-04-22T06:56:05.055Z,56.10
2018-04-22T06:58:34.783Z,56.00
2018-04-22T07:01:04.392Z,54.60
2018-04-22T07:03:34.101Z,46.40
2018-04-22T07:06:03.824Z,52.60
2018-04-22T07:08:33.430Z,49.70
2018-04-22T07:11:02.983Z,52.20
2018-04-22T07:13:32.913Z,51.70
2018-04-22T07:16:02.370Z,45.40
2018-04-22T07:18:33.419Z,44.20
2018-04-22T07:21:03.913Z,44.20
2018-04-22T07:23:33.666Z,48.10
2018-04-22T07:26:04.244Z,49.90
2018-04-22T07:28:34.087Z,49.50
2018-04-22T07:31:03.668Z,44.10
2018-04-22T07:33:33.639Z,36.60
2018-04-22T07:36:03.552Z,45.20
2018-04-22T07:38:33.094Z,51.80
2018-04-22T07:41:02.925Z,53.00
2018-04-22T07:43:32.693Z,57.50
2018-04-22T07:46:03.246Z,55.00
2018-04-22T07:48:32.990Z,54.90
2018-04-22T07:51:02.828Z,55.60
2018-04-22T07:53:33.572Z,51.30
2018-04-22T07:56:03.179Z,51.20
2018-04-22T07:58:32.666Z,49.40
2018-04-22T08:01:02.483Z,47.70
2018-04-22T08:03:32.049Z,48.40
2018-04-22T08:06:01.773Z,51.00
2018-04-22T08:08:31.354Z,47.50
2018-04-22T08:11:01.268Z,49.50
2018-04-22T08:13:30.858Z,44.70
2018-04-22T08:16:01.520Z,45.00
2018-04-22T08:18:31.270Z,44.90
2018-04-22T08:21:01.190Z,45.10
2018-04-22T08:23:31.078Z,49.40
2018-04-22T08:26:00.814Z,41.00
2018-04-22T08:28:30.527Z,38.60
2018-04-22T08:31:00.670Z,39.30
2018-04-22T08:33:30.948Z,37.80
2018-04-22T08:36:01.406Z,33.90
2018-04-22T08:38:31.843Z,31.40
2018-04-22T08:41:02.436Z,32.70
2018-04-22T08:43:32.166Z,33.10
2018-04-22T08:46:01.851Z,36.50
2018-04-22T08:48:31.580Z,32.50
2018-04-22T08:51:01.685Z,34.20
2018-04-22T08:53:31.562Z,31.50
2018-04-22T08:56:01.299Z,32.20
2018-04-22T08:58:31.250Z,31.50
2018-04-22T09:01:00.908Z,31.80
2018-04-22T09:03:30.726Z,31.90
2018-04-22T09:06:00.440Z,32.30
2018-04-22T09:08:30.367Z,34.00
2018-04-22T09:11:00.156Z,35.80
2018-04-22T09:13:30.053Z,36.00
2018-04-22T09:16:00.937Z,35.10
2018-04-22T09:18:30.480Z,35.30
2018-04-22T09:21:00.162Z,33.40
2018-04-22T09:23:30.130Z,33.30
2018-04-22T09:25:59.787Z,31.90
2018-04-22T09:28:30.870Z,33.00
2018-04-22T09:31:01.252Z,31.90
2018-04-22T09:33:31.260Z,32.00
2018-04-22T09:36:01.039Z,34.40
2018-04-22T09:38:31.484Z,34.30
2018-04-22T09:41:02.529Z,34.40
2018-04-22T09:43:35.569Z,34.70
2018-04-22T09:46:05.858Z,35.00
2018-04-22T09:48:35.452Z,35.30
2018-04-22T09:51:05.077Z,35.20
2018-04-22T09:53:34.899Z,36.30
2018-04-22T09:56:04.610Z,36.00
2018-04-22T09:58:34.339Z,42.30
2018-04-22T10:01:03.869Z,43.70
2018-04-22T10:03:37.277Z,43.20
2018-04-22T10:06:07.641Z,45.90
2018-04-22T10:08:37.889Z,46.10
2018-04-22T10:11:07.600Z,48.70
2018-04-22T10:13:37.108Z,46.90
2018-04-22T10:16:06.861Z,51.00
2018-04-22T10:18:36.353Z,49.10
2018-04-22T10:21:06.804Z,51.90
2018-04-22T10:23:36.464Z,51.80
2018-04-22T10:26:06.844Z,53.40
2018-04-22T10:28:36.499Z,53.50
2018-04-22T10:31:06.108Z,48.40
2018-04-22T10:33:35.771Z,49.90
2018-04-22T10:36:05.430Z,52.30
2018-04-22T10:38:35.080Z,52.20
2018-04-22T10:41:04.732Z,52.00
2018-04-22T10:43:35.179Z,51.10
2018-04-22T10:46:05.852Z,52.80
2018-04-22T10:48:35.367Z,49.30
2018-04-22T10:51:06.626Z,52.00
2018-04-22T10:53:36.402Z,52.20
2018-04-22T10:56:07.159Z,53.20
2018-04-22T10:58:37.096Z,52.00
2018-04-22T11:01:06.823Z,54.30
2018-04-22T11:03:36.513Z,55.30
2018-04-22T11:06:06.059Z,54.30
2018-04-22T11:08:35.800Z,51.60
2018-04-22T11:11:06.962Z,53.20
2018-04-22T11:13:36.489Z,54.30
2018-04-22T11:16:06.385Z,57.20
2018-04-22T11:18:36.541Z,53.50
2018-04-22T11:21:06.610Z,52.20
2018-04-22T11:23:36.618Z,53.50
2018-04-22T11:26:16.594Z,49.40
2018-04-22T11:28:51.635Z,49.60
2018-04-22T11:31:21.631Z,51.70
2018-04-22T11:33:51.524Z,54.20
2018-04-22T11:36:21.112Z,54.70
2018-04-22T11:38:51.915Z,49.80
2018-04-22T11:41:21.631Z,55.70
2018-04-22T11:43:51.207Z,53.30
2018-04-22T11:46:23.003Z,52.80
2018-04-22T11:48:53.947Z,54.10
2018-04-22T11:51:23.736Z,54.00
2018-04-22T11:53:53.442Z,54.00
2018-04-22T11:56:23.152Z,58.80
2018-04-22T11:58:52.703Z,59.30
2018-04-22T12:01:22.235Z,59.40
2018-04-22T12:03:52.067Z,59.50
2018-04-22T12:06:21.909Z,55.30
2018-04-22T12:08:51.687Z,55.30
2018-04-22T12:11:22.030Z,54.40
2018-04-22T12:13:51.637Z,54.60
2018-04-22T12:16:21.251Z,58.30
2018-04-22T12:18:50.956Z,59.30
2018-04-22T12:21:20.878Z,60.70
2018-04-22T12:23:50.894Z,62.30
2018-04-22T12:26:20.937Z,58.60
2018-04-22T12:28:50.857Z,54.90
2018-04-22T12:31:20.440Z,55.40
2018-04-22T12:33:50.187Z,51.00
2018-04-22T12:36:20.064Z,49.00
2018-04-22T12:38:49.939Z,46.30
2018-04-22T12:41:19.795Z,46.90
2018-04-22T12:43:49.529Z,44.60
2018-04-22T12:46:19.339Z,48.60
2018-04-22T12:48:49.010Z,48.00
2018-04-22T12:51:28.710Z,53.00
2018-04-22T12:53:58.512Z,57.10
2018-04-22T12:56:28.116Z,56.50
2018-04-22T12:58:58.891Z,55.80
2018-04-22T13:01:28.957Z,55.40
2018-04-22T13:03:58.558Z,57.30
2018-04-22T13:06:28.978Z,55.60
2018-04-22T13:08:58.654Z,54.90
2018-04-22T13:11:50.976Z,52.60
2018-04-22T13:14:21.588Z,53.30
2018-04-22T13:16:51.491Z,52.00
2018-04-22T13:19:21.629Z,52.90
2018-04-22T13:21:51.239Z,51.70
2018-04-22T13:24:21.784Z,52.10
2018-04-22T13:26:51.435Z,51.80
2018-04-22T13:29:21.926Z,47.60
2018-04-22T13:31:52.729Z,47.60
2018-04-22T13:34:22.240Z,47.70
2018-04-22T13:36:52.041Z,48.60
2018-04-22T13:39:21.640Z,48.60
2018-04-22T13:41:51.367Z,49.30
2018-04-22T13:44:21.854Z,49.10
2018-04-22T13:46:52.144Z,49.40
2018-04-22T13:49:21.789Z,49.40
2018-04-22T13:51:51.463Z,48.10
2018-04-22T13:54:21.052Z,47.40
2018-04-22T13:56:50.761Z,46.90
2018-04-22T13:59:20.785Z,46.80
2018-04-22T14:01:50.501Z,49.10
2018-04-22T14:04:20.302Z,46.80
2018-04-22T14:06:49.818Z,47.10
2018-04-22T14:09:19.502Z,49.20
2018-04-22T14:11:50.031Z,51.10
2018-04-22T14:14:19.879Z,51.10
2018-04-22T14:16:49.657Z,50.20
2018-04-22T14:19:19.164Z,51.40
2018-04-22T14:21:48.620Z,54.40
2018-04-22T14:24:18.342Z,53.70
2018-04-22T14:26:48.161Z,51.30
2018-04-22T14:29:18.422Z,56.30
2018-04-22T14:31:48.316Z,57.60
2018-04-22T14:34:18.899Z,58.70
2018-04-22T14:36:48.689Z,58.80
2018-04-22T14:39:18.714Z,59.70
2018-04-22T14:41:48.426Z,60.10
2018-04-22T14:44:35.949Z,57.20
2018-04-22T14:47:05.505Z,60.90
2018-04-22T14:49:34.982Z,61.00
2018-04-22T14:52:04.677Z,59.70
2018-04-22T14:54:34.280Z,59.90
2018-04-22T14:57:03.999Z,61.40
2018-04-22T14:59:33.515Z,62.00
2018-04-22T15:02:03.635Z,62.70
2018-04-22T15:04:34.174Z,62.60
2018-04-22T15:07:04.031Z,61.70
2018-04-22T15:09:33.651Z,61.30
2018-04-22T15:12:04.305Z,60.70
2018-04-22T15:14:33.993Z,59.90
2018-04-22T15:17:03.716Z,58.40
2018-04-22T15:19:33.451Z,57.00
2018-04-22T15:22:02.999Z,55.10
2018-04-22T15:24:33.495Z,53.30
2018-04-22T15:27:03.101Z,53.30
2018-04-22T15:29:32.902Z,55.70
2018-04-22T15:32:02.950Z,55.90
2018-04-22T15:34:33.013Z,56.20
2018-04-22T15:37:02.610Z,54.60
2018-04-22T15:39:32.365Z,53.50
2018-04-22T15:42:02.201Z,54.40
2018-04-22T15:44:32.083Z,54.50
2018-04-22T15:47:03.551Z,52.50
2018-04-22T15:49:33.152Z,52.50
2018-04-22T15:52:02.781Z,50.20
2018-04-22T15:54:33.512Z,49.00
2018-04-22T15:57:03.133Z,49.20
2018-04-22T15:59:33.004Z,48.50
2018-04-22T16:02:03.909Z,47.90
2018-04-22T16:04:33.554Z,47.70
2018-04-22T16:07:03.638Z,47.40
2018-04-22T16:09:33.966Z,47.70
2018-04-22T16:12:03.590Z,47.80
2018-04-22T16:14:33.657Z,46.90
2018-04-22T16:17:04.237Z,48.50
2018-04-22T16:19:34.350Z,48.50
2018-04-22T16:22:04.020Z,48.50
2018-04-22T16:24:33.838Z,47.90
2018-04-22T16:27:04.641Z,45.40
2018-04-22T16:29:34.721Z,45.60
2018-04-22T16:32:05.394Z,44.30
2018-04-22T16:34:36.024Z,44.40
2018-04-22T16:37:05.741Z,44.30
2018-04-22T16:39:36.012Z,44.20
2018-04-22T16:42:06.173Z,43.60
2018-04-22T16:44:36.021Z,43.20
2018-04-22T16:47:07.599Z,41.60
2018-04-22T16:49:38.014Z,39.60
2018-04-22T16:52:08.080Z,40.90
2018-04-22T16:54:38.900Z,38.30
2018-04-22T16:57:08.800Z,38.40
2018-04-22T16:59:38.456Z,38.00
2018-04-22T17:02:10.918Z,38.00
2018-04-22T17:04:40.652Z,37.90
2018-04-22T17:07:10.446Z,37.60
2018-04-22T17:09:40.072Z,36.50
2018-04-22T17:12:09.893Z,35.70
2018-04-22T17:21:20.945Z,32.20
2018-04-22T17:24:30.514Z,30.70
2018-04-22T17:27:05.617Z,32.10
2018-04-22T17:29:35.644Z,32.00
2018-04-22T17:32:06.774Z,33.60
2018-04-22T17:34:36.900Z,33.60
2018-04-22T17:37:07.434Z,34.40
2018-04-22T17:39:37.250Z,35.30
2018-04-22T17:42:31.520Z,36.00
2018-04-22T17:47:55.846Z,35.80
2018-04-22T17:50:27.072Z,39.20
2018-04-22T17:52:57.356Z,38.00
2018-04-22T17:55:27.369Z,38.90
2018-04-22T17:57:58.987Z,39.20
2018-04-22T18:00:42.034Z,38.80
2018-04-22T18:03:19.579Z,39.50
2018-04-22T18:05:50.573Z,40.20
2018-04-22T18:08:20.689Z,40.30
2018-04-22T18:10:51.795Z,40.80
2018-04-22T18:13:22.711Z,42.40
2018-04-22T18:15:54.225Z,42.20
2018-04-22T18:18:24.211Z,45.50
2018-04-22T18:20:55.954Z,46.80
2018-04-22T18:23:26.392Z,46.80
2018-04-22T18:25:56.830Z,49.40
2018-04-22T18:28:27.166Z,49.90
2018-04-22T18:30:57.664Z,50.40
2018-04-22T18:33:27.769Z,50.40
2018-04-22T18:35:57.858Z,51.00
2018-04-22T18:38:28.241Z,51.30
2018-04-22T18:40:58.280Z,50.20
2018-04-22T18:43:29.232Z,48.10
2018-04-22T18:45:59.625Z,47.80
2018-04-22T18:48:29.566Z,47.70
2018-04-22T18:50:59.867Z,49.20
2018-04-22T18:53:29.983Z,46.80
2018-04-22T18:56:00.246Z,47.30
2018-04-22T18:58:31.361Z,46.70
2018-04-22T19:01:02.494Z,46.70
2018-04-22T19:03:32.637Z,46.40
2018-04-22T19:06:04.550Z,47.80
2018-04-22T19:08:36.681Z,47.90
2018-04-22T19:11:07.004Z,47.90
2018-04-22T19:13:37.044Z,48.40
2018-04-22T19:18:45.357Z,49.20
2018-04-22T19:21:17.800Z,49.90
2018-04-22T19:23:49.053Z,47.70
2018-04-22T19:26:20.608Z,50.20
2018-04-22T19:28:52.133Z,50.90
2018-04-22T19:31:22.988Z,52.50
2018-04-22T19:33:52.947Z,50.10
2018-04-22T19:36:33.345Z,51.70
2018-04-22T19:39:06.750Z,50.00
2018-04-22T19:41:36.609Z,49.80
2018-04-22T19:44:07.315Z,49.50
2018-04-22T19:46:37.642Z,49.50
2018-04-22T19:49:07.748Z,48.80
2018-04-22T19:51:38.985Z,48.80
2018-04-22T19:54:08.996Z,48.50
2018-04-22T19:56:38.907Z,49.50
2018-04-22T19:59:08.792Z,50.10
2018-04-22T20:01:39.567Z,51.90
2018-04-22T20:04:09.304Z,52.50
2018-04-22T20:06:39.184Z,52.80
2018-04-22T20:09:09.344Z,55.00
2018-04-22T20:11:39.739Z,58.90
2018-04-22T20:14:09.529Z,58.80
2018-04-22T20:16:40.088Z,60.30
2018-04-22T20:19:09.830Z,60.30
2018-04-22T20:21:39.445Z,60.70
2018-04-22T20:24:08.978Z,61.40
2018-04-22T20:29:13.486Z,62.00
2018-04-22T20:31:43.252Z,62.40
2018-04-22T20:34:14.050Z,62.40
2018-04-22T20:36:43.856Z,62.70
2018-04-22T20:39:13.464Z,63.40
2018-04-22T20:41:42.971Z,63.90
2018-04-22T20:44:12.826Z,64.40
2018-04-22T20:46:43.676Z,65.00
2018-04-22T20:49:13.479Z,66.20
2018-04-22T20:51:43.161Z,67.80
2018-04-22T20:54:12.775Z,69.20
2018-04-22T20:56:42.501Z,69.70
2018-04-22T20:59:12.931Z,69.30
2018-04-22T21:01:42.641Z,69.50
2018-04-22T21:06:48.801Z,69.90
2018-04-22T21:09:19.449Z,69.80
2018-04-22T21:11:49.095Z,69.80
2018-04-22T21:14:19.898Z,70.10
2018-04-22T21:16:49.457Z,70.10
2018-04-22T21:19:19.871Z,69.20
2018-04-22T21:21:49.508Z,69.10
2018-04-22T21:24:23.140Z,71.30
2018-04-22T21:26:57.859Z,71.50
2018-04-22T21:29:27.587Z,71.40
2018-04-22T21:31:58.276Z,73.30
2018-04-22T21:34:27.981Z,73.20
2018-04-22T21:36:58.970Z,71.30
2018-04-22T21:39:30.081Z,70.50
2018-04-22T21:42:00.871Z,70.40
2018-04-22T21:44:30.632Z,70.20
2018-04-22T21:47:01.064Z,70.90
2018-04-22T21:49:30.629Z,70.90
2018-04-22T21:52:00.226Z,71.50
2018-04-22T21:54:29.920Z,72.40
2018-04-22T21:56:59.435Z,72.90
2018-04-22T21:59:28.965Z,73.40
2018-04-22T22:01:59.255Z,74.30
2018-04-22T22:04:29.528Z,74.40
2018-04-22T22:07:00.156Z,74.80
2018-04-22T22:09:31.150Z,75.40
2018-04-22T22:12:01.571Z,75.40
2018-04-22T22:14:31.467Z,75.40
2018-04-22T22:17:01.718Z,75.20
2018-04-22T22:22:08.632Z,74.70
2018-04-22T22:24:40.175Z,74.80
2018-04-22T22:27:10.593Z,74.70
2018-04-22T22:29:41.138Z,75.20
2018-04-22T22:32:11.758Z,75.70
2018-04-22T22:34:41.962Z,76.70
2018-04-22T22:37:12.725Z,77.50
2018-04-22T22:39:44.076Z,77.60
2018-04-22T22:42:15.945Z,77.70
2018-04-22T22:44:46.522Z,77.30
2018-04-22T22:47:16.651Z,77.20
2018-04-22T22:49:46.905Z,77.50
2018-04-22T22:52:16.819Z,78.20
2018-04-22T22:54:47.568Z,78.60
2018-04-22T22:57:18.560Z,79.40
2018-04-22T22:59:48.819Z,80.00
2018-04-22T23:02:19.044Z,79.50
2018-04-22T23:04:49.091Z,79.60
2018-04-22T23:07:19.237Z,79.60
2018-04-22T23:09:51.352Z,79.50
2018-04-22T23:12:21.601Z,79.50
2018-04-22T23:14:52.199Z,79.40
2018-04-22T23:17:23.885Z,80.00
2018-04-22T23:19:55.067Z,80.00
2018-04-22T23:22:25.061Z,80.60
2018-04-22T23:24:56.481Z,80.80
2018-04-22T23:27:27.147Z,80.80
2018-04-22T23:29:57.523Z,80.90
2018-04-22T23:32:27.593Z,81.00
2018-04-22T23:35:01.321Z,80.90
2018-04-22T23:37:31.869Z,80.70
2018-04-22T23:40:02.207Z,80.50
2018-04-22T23:42:33.431Z,80.80
2018-04-22T23:45:04.018Z,80.90
2018-04-22T23:47:34.553Z,81.70
2018-04-22T23:50:04.820Z,81.60
2018-04-22T23:52:34.770Z,80.40
2018-04-22T23:55:04.522Z,80.40
2018-04-22T23:57:34.287Z,82.90
